Teyateyaneng, Lesotho
Current Conditions -  °F | °C
As of 8:00 AM on Saturday 20 Dec 2014 (Local Time) from FABL Reporting Station
Clear Clear  
Wind Chill: 68°   Ceiling: Unl
Heat Index: 68°   Visibility: 6mi
Dew Point: 54°   Wind: 3mph
Humidity: 60%   Direction: 20°NNE
Pressure: 30.12"   Gusts: NA
Location:  29.15°S, 27.74°E
Report Text: FABL 200600Z 02003KT CAVOK 20/12 Q1020 NOSIG
Loading
Personal Weather Stations






























Interactive Weather Map New forecast layout! Learn more

10-Day Weather Forecast

Advertisements
Track Severe Weather on mobile